createdAt,value
2023-03-23T15:59:32.149Z,94358.44
2023-03-23T16:01:58.921Z,94367.53
2023-03-23T16:04:28.535Z,94364.88
2023-03-23T16:06:57.548Z,94364.59
2023-03-23T16:09:25.558Z,94359.53
2023-03-23T16:11:52.312Z,94364.38
2023-03-23T16:14:20.590Z,94364.72
2023-03-23T16:16:50.980Z,94363.91
2023-03-23T16:19:20.406Z,94359.66
2023-03-23T16:21:47.728Z,94364.50
2023-03-23T16:24:15.605Z,94357.41
2023-03-23T16:26:42.756Z,94354.91
2023-03-23T16:29:20.388Z,94359.44
2023-03-23T16:32:02.526Z,94355.97
2023-03-23T16:34:32.988Z,94365.69
2023-03-23T16:36:59.850Z,94366.00
2023-03-23T16:39:28.614Z,94369.31
2023-03-23T16:41:55.592Z,94378.91
2023-03-23T16:44:23.314Z,94373.38
2023-03-23T16:46:50.010Z,94370.72
2023-03-23T16:49:20.392Z,94373.38
2023-03-23T16:51:51.825Z,94356.72
2023-03-23T16:54:18.736Z,94362.69
2023-03-23T16:56:47.016Z,94361.91
2023-03-23T16:59:13.943Z,94361.41
2023-03-23T17:01:41.492Z,94352.91
2023-03-23T17:04:08.213Z,94354.03
2023-03-23T17:06:37.668Z,94348.97
2023-03-23T17:09:04.353Z,94349.59
2023-03-23T17:11:31.548Z,94352.88
2023-03-23T17:13:58.529Z,94339.06
2023-03-23T17:16:25.488Z,94351.91
2023-03-23T17:18:52.396Z,94349.56
2023-03-23T17:21:20.957Z,94349.56
2023-03-23T17:23:49.389Z,94351.72
2023-03-23T17:26:16.332Z,94360.66
2023-03-23T17:28:46.685Z,94358.88
2023-03-23T17:31:13.558Z,94360.09
2023-03-23T17:33:41.798Z,94358.06
2023-03-23T17:36:08.891Z,94361.34
2023-03-23T17:38:36.115Z,94363.50
2023-03-23T17:41:08.232Z,94372.63
2023-03-23T17:43:36.712Z,94367.06
2023-03-23T17:46:03.887Z,94371.63
2023-03-23T17:48:31.460Z,94372.72
2023-03-23T17:50:59.033Z,94365.91
2023-03-23T17:53:26.585Z,94369.31
2023-03-23T17:55:53.519Z,94376.94
2023-03-23T17:58:22.627Z,94378.44
2023-03-23T18:00:49.284Z,94381.59
2023-03-23T18:03:16.281Z,94380.44
2023-03-23T18:05:43.333Z,94382.59
2023-03-23T18:08:10.766Z,94382.94
2023-03-23T18:10:40.144Z,94376.31
2023-03-23T18:13:08.310Z,94372.66
2023-03-23T18:15:37.385Z,94379.19
2023-03-23T18:18:05.343Z,94371.91
2023-03-23T18:20:32.553Z,94376.56
2023-03-23T18:22:59.611Z,94375.56
2023-03-23T18:25:26.437Z,94377.94
2023-03-23T18:27:53.399Z,94377.63
2023-03-23T18:30:20.608Z,94381.88
2023-03-23T18:33:19.087Z,94389.38
2023-03-23T18:35:48.032Z,94385.63
2023-03-23T18:38:15.365Z,94389.88
2023-03-23T18:40:45.343Z,94388.22
2023-03-23T18:43:12.573Z,94388.50
2023-03-23T18:45:40.152Z,94405.25
2023-03-23T18:48:10.335Z,94401.78
2023-03-23T18:50:37.377Z,94410.66
2023-03-23T18:53:04.205Z,94427.50
2023-03-23T18:55:38.168Z,94437.66
2023-03-23T18:58:06.748Z,94434.50
2023-03-23T19:00:33.999Z,94423.34
2023-03-23T19:03:02.687Z,94423.84
2023-03-23T19:05:31.787Z,94426.22
2023-03-23T19:07:59.139Z,94427.03
2023-03-23T19:10:27.694Z,94421.38
2023-03-23T19:12:54.480Z,94427.03
2023-03-23T19:15:21.421Z,94420.25
2023-03-23T19:17:55.805Z,94413.84
2023-03-23T19:23:00.109Z,94422.66
2023-03-23T19:25:27.138Z,94412.09
2023-03-23T19:30:24.334Z,94410.50
2023-03-23T19:32:51.359Z,94408.72
2023-03-23T19:35:18.725Z,94405.06
2023-03-23T19:37:46.479Z,94409.69
2023-03-23T19:40:35.546Z,94408.16
2023-03-23T19:43:01.341Z,94406.47
2023-03-23T19:45:28.456Z,94415.56
2023-03-23T19:47:59.673Z,94421.19
2023-03-23T19:50:26.990Z,94419.59
2023-03-23T19:52:54.198Z,94422.25
2023-03-23T19:55:22.789Z,94425.41
2023-03-23T19:57:50.675Z,94426.50
2023-03-23T20:00:18.209Z,94426.19
2023-03-23T20:02:47.380Z,94423.47
2023-03-23T20:05:16.773Z,94410.69
2023-03-23T20:07:47.829Z,94414.38
2023-03-23T20:10:17.572Z,94411.13
2023-03-23T20:12:53.797Z,94417.72
2023-03-23T20:15:21.580Z,94413.00
2023-03-23T20:17:48.592Z,94421.44
2023-03-23T20:20:19.803Z,94412.91
2023-03-23T20:22:48.080Z,94410.75
2023-03-23T20:25:17.641Z,94412.34
2023-03-23T20:27:46.648Z,94410.47
2023-03-23T20:30:13.859Z,94414.50
2023-03-23T20:32:40.928Z,94415.34
2023-03-23T20:35:10.861Z,94424.69
2023-03-23T20:37:39.754Z,94426.63
2023-03-23T20:40:08.543Z,94420.59
2023-03-23T20:42:35.896Z,94419.31
2023-03-23T20:45:08.582Z,94419.13
2023-03-23T20:47:36.262Z,94418.16
2023-03-23T20:50:04.250Z,94423.34
2023-03-23T20:52:32.865Z,94423.91
2023-03-23T20:55:01.128Z,94418.09
2023-03-23T20:57:30.490Z,94418.69
2023-03-23T20:59:57.195Z,94415.00
2023-03-23T21:02:26.216Z,94410.78
2023-03-23T21:04:53.889Z,94414.81
2023-03-23T21:07:23.101Z,94410.66
2023-03-23T21:09:50.298Z,94408.00
2023-03-23T21:12:17.382Z,94405.06
2023-03-23T21:14:45.762Z,94408.22
2023-03-23T21:17:12.721Z,94405.25
2023-03-23T21:19:41.803Z,94399.47
2023-03-23T21:22:09.991Z,94403.75
2023-03-23T21:24:40.486Z,94403.81
2023-03-23T21:27:08.990Z,94396.63
2023-03-23T21:29:35.800Z,94391.84
2023-03-23T21:32:08.166Z,94390.47
2023-03-23T21:34:38.048Z,94380.88
2023-03-23T21:37:06.482Z,94381.16
2023-03-23T21:39:34.724Z,94381.00
2023-03-23T21:42:10.842Z,94384.31
2023-03-23T21:44:40.116Z,94381.78
2023-03-23T21:47:08.611Z,94378.41
2023-03-23T21:49:40.677Z,94376.31
2023-03-23T21:52:10.716Z,94370.25
2023-03-23T21:54:39.854Z,94368.75
2023-03-23T21:57:07.236Z,94365.88
2023-03-23T21:59:34.641Z,94360.00
2023-03-23T22:02:02.677Z,94359.44
2023-03-23T22:04:29.925Z,94352.56
2023-03-23T22:06:57.678Z,94351.00
2023-03-23T22:09:30.820Z,94349.28
2023-03-23T22:11:57.696Z,94347.53
2023-03-23T22:14:24.667Z,94339.69
2023-03-23T22:16:52.260Z,94339.22
2023-03-23T22:19:19.377Z,94344.09
2023-03-23T22:21:46.617Z,94345.19
2023-03-23T22:24:13.700Z,94338.09
2023-03-23T22:26:42.711Z,94338.38
2023-03-23T22:29:12.028Z,94330.72
2023-03-23T22:31:39.801Z,94322.31
2023-03-23T22:34:06.731Z,94325.22
2023-03-23T22:36:34.007Z,94322.53
2023-03-23T22:39:02.027Z,94322.78
2023-03-23T22:41:34.772Z,94314.31
2023-03-23T22:44:03.480Z,94318.09
2023-03-23T22:46:34.114Z,94302.31
2023-03-23T22:49:00.948Z,94303.94
2023-03-23T22:51:27.774Z,94298.13
2023-03-23T22:53:56.477Z,94298.19
2023-03-23T22:56:24.910Z,94294.28
2023-03-23T22:58:51.777Z,94285.06
2023-03-23T23:01:21.851Z,94284.84
2023-03-23T23:03:49.419Z,94280.09
2023-03-23T23:06:17.988Z,94274.56
2023-03-23T23:08:45.930Z,94270.84
2023-03-23T23:11:16.066Z,94267.13
2023-03-23T23:13:43.272Z,94268.94
2023-03-23T23:16:11.393Z,94270.78
2023-03-23T23:18:40.879Z,94261.75
2023-03-23T23:21:12.817Z,94262.88
2023-03-23T23:23:41.049Z,94263.97
2023-03-23T23:26:09.521Z,94258.75
2023-03-23T23:28:36.308Z,94255.78
2023-03-23T23:31:03.970Z,94248.38
2023-03-23T23:33:30.805Z,94245.72
2023-03-23T23:36:00.284Z,94248.06
2023-03-23T23:38:27.206Z,94245.94
2023-03-23T23:40:53.889Z,94237.44
2023-03-23T23:43:20.964Z,94233.75
2023-03-23T23:45:47.773Z,94230.84
2023-03-23T23:48:14.480Z,94228.81
2023-03-23T23:50:41.627Z,94229.41
2023-03-23T23:53:11.048Z,94221.50
2023-03-23T23:55:39.087Z,94218.06
2023-03-23T23:58:05.754Z,94218.84
